createdAt,value
2022-12-24T00:01:13.793Z,15.01
2022-12-24T00:03:15.354Z,15.03
2022-12-24T00:05:17.229Z,15.04
2022-12-24T00:07:20.397Z,15.00
2022-12-24T00:09:21.953Z,14.92
2022-12-24T00:11:23.531Z,14.96
2022-12-24T00:13:25.211Z,15.02
2022-12-24T00:15:27.088Z,15.04
2022-12-24T00:17:28.752Z,15.05
2022-12-24T00:19:30.321Z,15.03
2022-12-24T00:21:31.962Z,15.01
2022-12-24T00:23:35.238Z,15.00
2022-12-24T00:25:36.784Z,14.99
2022-12-24T00:27:38.327Z,14.99
2022-12-24T00:29:39.937Z,14.93
2022-12-24T00:31:41.488Z,14.91
2022-12-24T00:33:43.101Z,14.86
2022-12-24T00:35:44.649Z,14.85
2022-12-24T00:37:47.507Z,14.82
2022-12-24T00:39:50.386Z,14.84
2022-12-24T00:41:51.979Z,14.83
2022-12-24T00:43:54.804Z,14.78
2022-12-24T00:45:57.548Z,14.73
2022-12-24T00:47:59.160Z,14.74
2022-12-24T00:50:00.979Z,14.72
2022-12-24T00:52:02.603Z,14.72
2022-12-24T00:54:04.945Z,14.73
2022-12-24T00:56:08.683Z,14.70
2022-12-24T00:58:10.223Z,14.68
2022-12-24T01:00:12.266Z,14.69
2022-12-24T01:02:14.093Z,14.70
2022-12-24T01:04:15.930Z,14.64
2022-12-24T01:06:19.238Z,14.66
2022-12-24T01:08:20.758Z,14.67
2022-12-24T01:10:22.411Z,14.63
2022-12-24T01:12:25.817Z,14.63
2022-12-24T01:14:27.473Z,14.64
2022-12-24T01:16:29.278Z,14.71
2022-12-24T01:18:31.038Z,14.73
2022-12-24T01:20:32.654Z,14.78
2022-12-24T01:22:34.198Z,14.75
2022-12-24T01:24:35.888Z,14.74
2022-12-24T01:26:40.032Z,14.71
2022-12-24T01:28:42.930Z,14.71
2022-12-24T01:30:44.598Z,14.68
2022-12-24T01:32:46.219Z,14.68
2022-12-24T01:34:47.791Z,14.68
2022-12-24T01:36:49.376Z,14.70
2022-12-24T01:38:50.956Z,14.71
2022-12-24T01:40:52.526Z,14.71
2022-12-24T01:42:54.107Z,14.70
2022-12-24T01:44:57.015Z,14.75
2022-12-24T01:47:06.968Z,14.78
2022-12-24T01:49:11.627Z,14.74
2022-12-24T01:51:21.923Z,14.78
2022-12-24T01:53:24.008Z,14.78
2022-12-24T01:55:26.307Z,14.74
2022-12-24T01:57:37.695Z,14.71
2022-12-24T01:59:42.153Z,14.66
2022-12-24T02:01:52.788Z,14.64
2022-12-24T02:03:55.804Z,14.63
2022-12-24T02:05:59.023Z,14.61
2022-12-24T02:08:03.636Z,14.60
2022-12-24T02:10:08.279Z,14.64
2022-12-24T02:12:09.906Z,14.61
2022-12-24T02:14:12.856Z,14.64
2022-12-24T02:16:27.665Z,14.71
2022-12-24T02:18:38.504Z,14.66
2022-12-24T02:21:06.382Z,14.66
2022-12-24T02:23:24.789Z,14.55
2022-12-24T02:26:00.253Z,14.52
2022-12-24T02:28:14.098Z,14.47
2022-12-24T02:30:19.768Z,14.49
2022-12-24T02:32:24.435Z,14.48
2022-12-24T02:34:32.966Z,14.52
2022-12-24T02:36:40.069Z,14.53
2022-12-24T02:38:47.297Z,14.54
2022-12-24T02:40:52.728Z,14.52
2022-12-24T02:42:58.527Z,14.48
2022-12-24T02:45:05.291Z,14.45
2022-12-24T02:47:09.957Z,14.41
2022-12-24T02:49:12.319Z,14.39
2022-12-24T02:51:14.264Z,14.41
2022-12-24T02:53:15.901Z,14.44
2022-12-24T02:55:21.798Z,14.43
2022-12-24T02:57:34.327Z,14.39
2022-12-24T02:59:55.087Z,14.37
2022-12-24T03:02:07.687Z,14.34
2022-12-24T03:04:16.434Z,14.38
2022-12-24T03:06:30.974Z,14.40
2022-12-24T03:08:43.633Z,14.42
2022-12-24T03:10:55.069Z,14.44
2022-12-24T03:13:02.717Z,14.47
2022-12-24T03:15:06.767Z,14.48
2022-12-24T03:17:09.539Z,14.47
2022-12-24T03:19:13.291Z,14.44
2022-12-24T03:21:21.399Z,14.44
2022-12-24T03:23:23.102Z,14.45
2022-12-24T03:25:27.184Z,14.45
2022-12-24T03:27:30.811Z,14.47
2022-12-24T03:29:32.528Z,14.45
2022-12-24T03:31:45.283Z,14.38
2022-12-24T03:33:47.803Z,14.39
2022-12-24T03:35:50.688Z,14.29
2022-12-24T03:37:52.527Z,14.35
2022-12-24T03:39:54.049Z,14.40
2022-12-24T03:41:55.632Z,14.40
2022-12-24T03:43:57.421Z,14.42
2022-12-24T03:46:03.910Z,14.49
2022-12-24T03:48:05.879Z,14.52
2022-12-24T03:50:08.217Z,14.48
2022-12-24T03:52:11.193Z,14.52
2022-12-24T03:54:13.127Z,14.45
2022-12-24T03:56:15.424Z,14.50
2022-12-24T03:58:16.990Z,14.50
2022-12-24T04:00:19.809Z,14.50
2022-12-24T04:02:21.621Z,14.47
2022-12-24T04:04:23.438Z,14.45
2022-12-24T04:06:25.037Z,14.42
2022-12-24T04:08:28.269Z,14.43
2022-12-24T04:10:29.901Z,14.44
2022-12-24T04:12:31.578Z,14.45
2022-12-24T04:14:33.320Z,14.37
2022-12-24T04:16:34.897Z,14.39
2022-12-24T04:18:37.148Z,14.37
2022-12-24T04:20:38.753Z,14.34
2022-12-24T04:22:40.317Z,14.31
2022-12-24T04:24:43.488Z,14.30
2022-12-24T04:26:45.221Z,14.29
2022-12-24T04:28:46.819Z,14.33
2022-12-24T04:30:48.389Z,14.34
2022-12-24T04:32:50.025Z,14.36
2022-12-24T04:34:51.548Z,14.41
2022-12-24T04:36:53.381Z,14.42
2022-12-24T04:38:54.963Z,14.46
2022-12-24T04:41:02.063Z,14.42
2022-12-24T04:43:03.641Z,14.38
2022-12-24T04:45:06.115Z,14.30
2022-12-24T04:47:07.722Z,14.27
2022-12-24T04:49:09.300Z,14.16
2022-12-24T04:51:11.709Z,14.18
2022-12-24T04:53:13.599Z,14.14
2022-12-24T04:55:15.173Z,14.15
2022-12-24T04:57:18.158Z,14.15
2022-12-24T04:59:19.735Z,14.20
2022-12-24T05:01:23.981Z,14.19
2022-12-24T05:03:25.788Z,14.16
2022-12-24T05:05:27.400Z,14.20
2022-12-24T05:07:29.038Z,14.20
2022-12-24T05:09:30.664Z,14.15
2022-12-24T05:11:32.318Z,14.15
2022-12-24T05:13:42.541Z,14.17
2022-12-24T05:15:47.968Z,14.24
2022-12-24T05:17:50.082Z,14.22
2022-12-24T05:19:51.695Z,14.23
2022-12-24T05:21:53.565Z,14.27
2022-12-24T05:23:55.158Z,14.26
2022-12-24T05:25:57.185Z,14.23
2022-12-24T05:27:58.970Z,14.18
2022-12-24T05:30:01.952Z,14.21
2022-12-24T05:32:03.618Z,14.20
2022-12-24T05:34:05.251Z,14.13
2022-12-24T05:36:07.721Z,14.13
2022-12-24T05:38:09.265Z,14.06
2022-12-24T05:40:11.330Z,14.06
2022-12-24T05:42:14.247Z,14.07
2022-12-24T05:44:16.584Z,14.10
2022-12-24T05:46:21.584Z,14.11
2022-12-24T05:48:23.144Z,13.99
2022-12-24T05:50:24.757Z,14.08
2022-12-24T05:52:26.408Z,14.04
2022-12-24T05:54:28.053Z,13.98
2022-12-24T05:56:29.645Z,13.96
2022-12-24T05:58:31.238Z,13.98
2022-12-24T06:00:32.883Z,14.03
2022-12-24T06:02:35.899Z,14.02
2022-12-24T06:04:37.834Z,13.98
2022-12-24T06:06:39.419Z,13.95
2022-12-24T06:08:42.072Z,13.99
2022-12-24T06:10:43.739Z,14.04
2022-12-24T06:12:45.309Z,14.01
2022-12-24T06:14:46.878Z,14.03
2022-12-24T06:16:55.925Z,13.99
2022-12-24T06:18:58.921Z,13.99
2022-12-24T06:21:01.389Z,14.04
2022-12-24T06:23:03.236Z,13.98
2022-12-24T06:25:05.694Z,13.99
2022-12-24T06:27:07.351Z,13.99
2022-12-24T06:29:08.936Z,13.97
2022-12-24T06:31:13.113Z,13.90
2022-12-24T06:33:15.438Z,13.85
2022-12-24T06:35:18.872Z,13.89
2022-12-24T06:37:20.442Z,13.86
2022-12-24T06:39:21.991Z,13.76
2022-12-24T06:41:24.190Z,13.82
2022-12-24T06:43:25.987Z,13.85
2022-12-24T06:45:27.572Z,13.84
2022-12-24T06:47:29.179Z,13.86
2022-12-24T06:49:30.833Z,13.84
2022-12-24T06:51:33.782Z,13.88
2022-12-24T06:53:35.379Z,13.89
2022-12-24T06:55:37.167Z,13.82
2022-12-24T06:57:38.733Z,13.86
2022-12-24T06:59:40.276Z,13.89
2022-12-24T07:01:41.951Z,13.88
2022-12-24T07:03:43.819Z,13.91
2022-12-24T07:05:45.711Z,13.87
2022-12-24T07:07:48.673Z,13.83
2022-12-24T07:09:50.200Z,13.81
2022-12-24T07:11:51.730Z,13.82
2022-12-24T07:13:53.427Z,13.86
2022-12-24T07:15:58.308Z,13.87
2022-12-24T07:17:59.960Z,13.85
2022-12-24T07:20:01.674Z,13.84
2022-12-24T07:22:03.311Z,13.81
2022-12-24T07:27:09.544Z,13.74
2022-12-24T07:29:11.146Z,13.75
2022-12-24T07:31:12.830Z,13.80
2022-12-24T07:33:14.512Z,13.82
2022-12-24T07:35:16.394Z,13.83
2022-12-24T07:37:18.075Z,13.81
2022-12-24T07:39:19.637Z,13.85
2022-12-24T07:41:21.751Z,13.88
2022-12-24T07:43:25.042Z,13.96
2022-12-24T07:45:26.679Z,13.95
2022-12-24T07:47:28.188Z,13.85
2022-12-24T07:49:29.966Z,13.96
2022-12-24T07:51:31.700Z,13.97
2022-12-24T07:53:33.308Z,13.99
2022-12-24T07:55:36.109Z,13.98
2022-12-24T07:57:37.825Z,13.99
2022-12-24T07:59:40.799Z,14.03
2022-12-24T08:01:42.867Z,13.99
2022-12-24T08:03:45.518Z,13.98
2022-12-24T08:05:47.709Z,14.00
2022-12-24T08:07:49.287Z,14.09
2022-12-24T08:09:50.853Z,13.98
2022-12-24T08:11:52.735Z,13.97
2022-12-24T08:13:54.373Z,14.02
2022-12-24T08:15:57.693Z,14.09
2022-12-24T08:17:59.535Z,14.07
2022-12-24T08:20:01.181Z,14.12
2022-12-24T08:22:02.776Z,14.15
2022-12-24T08:24:05.313Z,14.19
2022-12-24T08:26:08.008Z,14.18
2022-12-24T08:28:10.147Z,14.15
2022-12-24T08:30:19.006Z,14.14
2022-12-24T08:32:23.857Z,14.10
2022-12-24T08:34:25.633Z,14.10
2022-12-24T08:36:27.214Z,14.11
2022-12-24T08:38:29.380Z,14.17
2022-12-24T08:40:30.978Z,14.13
2022-12-24T08:42:32.597Z,14.14
2022-12-24T08:44:34.203Z,14.18
2022-12-24T08:46:36.525Z,14.28
2022-12-24T08:48:39.490Z,14.23
2022-12-24T08:50:42.007Z,14.22
2022-12-24T08:52:43.655Z,14.17
2022-12-24T08:54:45.265Z,14.26
2022-12-24T08:56:46.845Z,14.26
2022-12-24T08:58:48.473Z,14.29
2022-12-24T09:00:52.347Z,14.31
2022-12-24T09:02:54.097Z,14.32
2022-12-24T09:04:57.270Z,14.31
2022-12-24T09:06:58.792Z,14.39
2022-12-24T09:09:00.384Z,14.42
2022-12-24T09:11:06.074Z,14.39
2022-12-24T09:13:07.818Z,14.42
2022-12-24T09:15:10.008Z,14.43
2022-12-24T09:17:11.650Z,14.44
2022-12-24T09:19:13.348Z,14.43
2022-12-24T09:21:16.655Z,14.47
2022-12-24T09:23:18.361Z,14.46
2022-12-24T09:25:19.936Z,14.53
2022-12-24T09:27:21.552Z,14.52
2022-12-24T09:29:23.142Z,14.56
2022-12-24T09:31:25.246Z,14.58
2022-12-24T09:33:27.648Z,14.63
2022-12-24T09:35:29.303Z,14.68
2022-12-24T09:37:34.639Z,14.70
2022-12-24T09:39:36.279Z,14.70
2022-12-24T09:41:47.421Z,14.65
2022-12-24T09:43:55.664Z,14.80
2022-12-24T09:46:07.057Z,14.91
2022-12-24T09:48:14.063Z,15.02
2022-12-24T09:50:29.114Z,15.06
2022-12-24T09:52:36.395Z,14.93
2022-12-24T09:54:47.706Z,14.87
2022-12-24T09:56:52.701Z,14.92
2022-12-24T09:58:58.392Z,14.99
2022-12-24T10:01:00.105Z,15.07
2022-12-24T10:03:01.820Z,15.07
2022-12-24T10:05:03.832Z,15.07
2022-12-24T10:07:12.814Z,15.10
2022-12-24T10:09:24.246Z,15.10
2022-12-24T10:11:31.386Z,15.07
2022-12-24T10:13:49.109Z,15.05
2022-12-24T10:15:56.883Z,15.10
2022-12-24T10:18:10.082Z,15.07
2022-12-24T10:20:26.974Z,15.00
2022-12-24T10:22:37.260Z,14.99
2022-12-24T10:24:50.788Z,15.00
2022-12-24T10:26:58.107Z,15.11
2022-12-24T10:29:02.555Z,15.16
2022-12-24T10:31:07.787Z,15.15
2022-12-24T10:33:20.696Z,15.18
2022-12-24T10:35:26.516Z,15.18
2022-12-24T10:37:29.560Z,15.13
2022-12-24T10:39:31.221Z,15.19
2022-12-24T10:41:36.050Z,15.18
2022-12-24T10:43:39.006Z,15.18
2022-12-24T10:45:45.829Z,15.16
2022-12-24T10:47:51.882Z,15.19
2022-12-24T10:50:01.147Z,15.18
2022-12-24T10:52:05.291Z,15.25
2022-12-24T10:54:12.106Z,15.27
2022-12-24T10:56:16.945Z,15.31
2022-12-24T10:58:20.255Z,15.39
2022-12-24T11:00:27.125Z,15.41
2022-12-24T11:02:35.915Z,15.51
2022-12-24T11:04:49.306Z,15.47
2022-12-24T11:06:56.077Z,15.52
2022-12-24T11:09:20.282Z,15.61
2022-12-24T11:11:21.964Z,15.62
2022-12-24T11:13:42.907Z,15.54
2022-12-24T11:15:44.619Z,15.54
2022-12-24T11:17:53.752Z,15.58
2022-12-24T11:19:55.506Z,15.52
2022-12-24T11:22:03.677Z,15.59
2022-12-24T11:24:14.374Z,15.59
2022-12-24T11:26:21.855Z,15.64
2022-12-24T11:28:27.292Z,15.68
2022-12-24T11:30:31.846Z,15.71
2022-12-24T11:32:33.452Z,15.76
2022-12-24T11:34:35.011Z,15.79
2022-12-24T11:36:36.618Z,15.78
2022-12-24T11:38:38.781Z,15.75
2022-12-24T11:40:43.024Z,15.74
2022-12-24T11:42:44.639Z,15.75
2022-12-24T11:44:50.106Z,15.64
2022-12-24T11:46:52.023Z,15.56
2022-12-24T11:49:22.191Z,15.55
2022-12-24T11:51:25.682Z,15.57
2022-12-24T11:53:35.525Z,15.52
2022-12-24T11:55:44.359Z,15.52
2022-12-24T11:57:54.543Z,15.48
2022-12-24T11:59:57.801Z,15.51
2022-12-24T12:02:12.743Z,15.54
2022-12-24T12:04:18.497Z,15.55
2022-12-24T12:06:28.843Z,15.56
2022-12-24T12:08:33.414Z,15.61
2022-12-24T12:10:39.256Z,15.47
2022-12-24T12:12:43.515Z,15.49
2022-12-24T12:14:50.108Z,15.46
2022-12-24T12:17:01.889Z,15.51
2022-12-24T12:19:13.058Z,15.58
2022-12-24T12:21:20.570Z,15.50
2022-12-24T12:23:26.303Z,15.53
2022-12-24T12:25:32.725Z,15.59
2022-12-24T12:27:39.621Z,15.57
2022-12-24T12:29:46.864Z,15.57
2022-12-24T12:31:53.146Z,15.53
2022-12-24T12:34:02.814Z,15.52
2022-12-24T12:36:10.415Z,15.68
2022-12-24T12:38:17.276Z,15.66
2022-12-24T12:40:19.057Z,15.72
2022-12-24T12:42:29.522Z,15.82
2022-12-24T12:44:56.316Z,15.81
2022-12-24T12:47:12.543Z,15.84
2022-12-24T12:49:33.915Z,15.86
2022-12-24T12:51:42.686Z,15.83
2022-12-24T12:54:08.252Z,15.86
2022-12-24T12:56:21.451Z,15.86
2022-12-24T12:58:27.498Z,15.85
2022-12-24T13:00:33.355Z,15.84
2022-12-24T13:02:51.861Z,15.86
2022-12-24T13:05:20.664Z,15.83
2022-12-24T13:07:48.289Z,15.83
2022-12-24T13:10:08.451Z,15.78
2022-12-24T13:12:45.858Z,15.85
2022-12-24T13:15:07.572Z,15.84
2022-12-24T13:17:32.094Z,15.75
2022-12-24T13:19:51.285Z,15.75
2022-12-24T13:21:56.500Z,15.72
2022-12-24T13:24:15.333Z,15.68
2022-12-24T13:26:17.407Z,15.68
2022-12-24T13:28:43.501Z,15.56
2022-12-24T13:30:45.051Z,15.52
2022-12-24T13:32:51.305Z,15.50
2022-12-24T13:34:54.670Z,15.55
2022-12-24T13:37:21.079Z,15.53
2022-12-24T13:39:22.877Z,15.40
2022-12-24T13:41:54.549Z,15.40
2022-12-24T13:44:03.069Z,15.34
2022-12-24T13:46:04.688Z,15.41
2022-12-24T13:48:25.000Z,15.30
2022-12-24T13:50:36.835Z,15.33
2022-12-24T13:52:50.121Z,15.26
2022-12-24T13:55:05.490Z,15.24
2022-12-24T13:57:25.678Z,15.20
2022-12-24T13:59:38.659Z,15.27
2022-12-24T14:01:43.111Z,15.16
2022-12-24T14:03:47.781Z,15.08
2022-12-24T14:05:52.661Z,15.04
2022-12-24T14:07:58.246Z,15.09
2022-12-24T14:10:00.346Z,15.13
2022-12-24T14:12:29.207Z,15.20
2022-12-24T14:14:32.900Z,15.24
2022-12-24T14:16:43.724Z,15.20
2022-12-24T14:18:49.721Z,15.27
2022-12-24T14:20:53.799Z,15.35
2022-12-24T14:22:58.036Z,15.34
2022-12-24T14:25:02.775Z,15.40
2022-12-24T14:27:14.522Z,15.40
2022-12-24T14:29:25.024Z,15.49
2022-12-24T14:31:26.990Z,15.46
2022-12-24T14:33:29.673Z,15.46
2022-12-24T14:35:37.881Z,15.45
2022-12-24T14:37:41.058Z,15.44
2022-12-24T14:39:47.976Z,15.50
2022-12-24T14:41:59.974Z,15.52
2022-12-24T14:44:13.122Z,15.55
2022-12-24T14:46:24.613Z,15.60
2022-12-24T14:48:37.147Z,15.53
2022-12-24T14:51:07.402Z,15.55
2022-12-24T14:53:23.549Z,15.54
2022-12-24T14:55:31.330Z,15.47
2022-12-24T14:57:32.999Z,15.43
2022-12-24T14:59:42.320Z,15.38
2022-12-24T15:01:44.338Z,15.35
2022-12-24T15:03:46.153Z,15.31
2022-12-24T15:05:52.456Z,15.33
2022-12-24T15:07:58.016Z,15.33
2022-12-24T15:09:59.839Z,15.31
2022-12-24T15:12:03.826Z,15.24
2022-12-24T15:14:05.685Z,15.24
2022-12-24T15:16:09.645Z,15.21
2022-12-24T15:18:16.330Z,15.19
2022-12-24T15:20:20.583Z,15.21
2022-12-24T15:22:24.851Z,15.22
2022-12-24T15:24:28.307Z,15.22
2022-12-24T15:26:31.659Z,15.23
2022-12-24T15:28:38.650Z,15.23
2022-12-24T15:30:40.335Z,15.24
2022-12-24T15:32:42.342Z,15.17
2022-12-24T15:34:46.490Z,15.18
2022-12-24T15:36:48.101Z,15.21
2022-12-24T15:38:52.943Z,15.21
2022-12-24T15:40:55.426Z,15.19
2022-12-24T15:42:57.138Z,15.19
2022-12-24T15:45:03.538Z,15.20
2022-12-24T15:47:08.569Z,15.19
2022-12-24T15:49:17.348Z,15.19
2022-12-24T15:51:25.698Z,15.18
2022-12-24T15:53:30.204Z,15.19
2022-12-24T15:55:35.972Z,15.20
2022-12-24T15:57:37.659Z,15.24
2022-12-24T15:59:39.355Z,15.25
2022-12-24T16:01:43.966Z,15.21
2022-12-24T16:03:56.390Z,15.23
2022-12-24T16:06:02.073Z,15.21
2022-12-24T16:08:25.119Z,15.21
2022-12-24T16:10:26.932Z,15.14
2022-12-24T16:12:30.065Z,15.09
2022-12-24T16:14:32.741Z,15.04
2022-12-24T16:16:37.578Z,15.03
2022-12-24T16:18:52.529Z,15.06
2022-12-24T16:20:56.116Z,15.04
2022-12-24T16:22:58.149Z,15.01
2022-12-24T16:25:00.750Z,15.03
2022-12-24T16:27:02.397Z,15.06
2022-12-24T16:29:04.355Z,15.07
2022-12-24T16:31:06.155Z,15.09
2022-12-24T16:33:14.188Z,15.09
2022-12-24T16:35:25.646Z,15.05
2022-12-24T16:37:27.247Z,14.95
2022-12-24T16:39:31.859Z,14.95
2022-12-24T16:41:33.469Z,15.01
2022-12-24T16:43:35.075Z,15.06
2022-12-24T16:45:36.926Z,15.00
2022-12-24T16:47:42.711Z,15.02
2022-12-24T16:49:45.335Z,14.99
2022-12-24T16:51:48.296Z,15.00
2022-12-24T16:53:49.921Z,14.94
2022-12-24T16:55:51.890Z,14.96
2022-12-24T16:57:53.511Z,14.95
2022-12-24T16:59:55.094Z,14.92
2022-12-24T17:01:56.751Z,14.95
2022-12-24T17:03:58.444Z,15.01
2022-12-24T17:06:04.589Z,15.04
2022-12-24T17:08:08.291Z,15.07
2022-12-24T17:10:11.700Z,15.10
2022-12-24T17:12:14.405Z,15.09
2022-12-24T17:14:20.331Z,15.03
2022-12-24T17:16:37.445Z,15.02
2022-12-24T17:18:39.190Z,15.00
2022-12-24T17:20:40.843Z,14.94
2022-12-24T17:22:42.485Z,14.96
2022-12-24T17:24:45.668Z,14.99
2022-12-24T17:26:47.227Z,14.98
2022-12-24T17:28:52.499Z,15.01
2022-12-24T17:30:54.133Z,14.99
2022-12-24T17:32:55.760Z,14.95
2022-12-24T17:34:57.330Z,14.87
2022-12-24T17:36:58.914Z,14.88
2022-12-24T17:39:00.590Z,14.89
2022-12-24T17:41:05.030Z,14.90
2022-12-24T17:43:06.644Z,14.88
2022-12-24T17:45:09.068Z,14.88
2022-12-24T17:47:10.598Z,14.88
2022-12-24T17:49:12.521Z,14.89
2022-12-24T17:51:15.917Z,14.91
2022-12-24T17:53:20.328Z,14.88
2022-12-24T17:55:21.981Z,14.86
2022-12-24T17:57:24.920Z,14.86
2022-12-24T17:59:26.524Z,14.86
2022-12-24T18:01:28.289Z,14.85
2022-12-24T18:03:30.227Z,14.80
2022-12-24T18:05:34.073Z,14.80
2022-12-24T18:07:35.805Z,14.78
2022-12-24T18:09:37.620Z,14.78
2022-12-24T18:11:39.852Z,14.71
2022-12-24T18:13:42.952Z,14.66
2022-12-24T18:15:44.620Z,14.62
2022-12-24T18:17:50.574Z,14.63
2022-12-24T18:19:52.185Z,14.65
2022-12-24T18:21:53.814Z,14.63
2022-12-24T18:23:55.555Z,14.67
2022-12-24T18:26:01.674Z,14.66
2022-12-24T18:28:03.500Z,14.65
2022-12-24T18:30:08.628Z,14.65
2022-12-24T18:32:10.223Z,14.65
2022-12-24T18:34:13.472Z,14.64
2022-12-24T18:36:15.440Z,14.64
2022-12-24T18:38:16.993Z,14.63
2022-12-24T18:40:18.620Z,14.64
2022-12-24T18:42:20.311Z,14.66
2022-12-24T18:44:25.268Z,14.64
2022-12-24T18:46:31.606Z,14.63
2022-12-24T18:48:33.251Z,14.62
2022-12-24T18:50:34.898Z,14.62
2022-12-24T18:52:39.646Z,14.59
2022-12-24T18:54:41.485Z,14.56
2022-12-24T18:56:43.097Z,14.52
2022-12-24T18:58:44.771Z,14.50
2022-12-24T19:00:46.796Z,14.47
2022-12-24T19:02:49.857Z,14.46
2022-12-24T19:04:51.580Z,14.43
2022-12-24T19:06:53.715Z,14.45
2022-12-24T19:08:57.630Z,14.46
2022-12-24T19:11:01.125Z,14.53
2022-12-24T19:13:02.740Z,14.55
2022-12-24T19:15:05.217Z,14.57
2022-12-24T19:17:06.853Z,14.58
2022-12-24T19:19:11.496Z,14.61
2022-12-24T19:21:14.273Z,14.61
2022-12-24T19:23:18.736Z,14.60
2022-12-24T19:25:21.465Z,14.62
2022-12-24T19:27:23.035Z,14.64
2022-12-24T19:29:24.665Z,14.61
2022-12-24T19:31:26.425Z,14.58
2022-12-24T19:33:28.007Z,14.56
2022-12-24T19:35:31.261Z,14.56
2022-12-24T19:37:32.861Z,14.58
2022-12-24T19:39:34.435Z,14.57
2022-12-24T19:41:36.189Z,14.54
2022-12-24T19:43:38.072Z,14.55
2022-12-24T19:45:39.717Z,14.52
2022-12-24T19:47:41.621Z,14.52
2022-12-24T19:49:43.178Z,14.52
2022-12-24T19:51:46.190Z,14.52
2022-12-24T19:53:48.696Z,14.50
2022-12-24T19:55:50.264Z,14.54
2022-12-24T19:57:51.967Z,14.59
2022-12-24T19:59:53.519Z,14.58
2022-12-24T20:01:55.375Z,14.59
2022-12-24T20:03:57.654Z,14.61
2022-12-24T20:05:59.274Z,14.63
2022-12-24T20:08:02.231Z,14.62
2022-12-24T20:10:04.227Z,14.64
2022-12-24T20:12:06.619Z,14.66
2022-12-24T20:14:08.421Z,14.66
2022-12-24T20:16:12.107Z,14.70
2022-12-24T20:18:14.569Z,14.69
2022-12-24T20:20:16.288Z,14.71
2022-12-24T20:22:17.885Z,14.78
2022-12-24T20:24:20.842Z,14.79
2022-12-24T20:26:27.758Z,14.79
2022-12-24T20:28:31.232Z,14.68
2022-12-24T20:30:36.002Z,14.69
2022-12-24T20:32:37.469Z,14.66
2022-12-24T20:34:38.960Z,14.66
2022-12-24T20:36:40.681Z,14.66
2022-12-24T20:38:42.701Z,14.65
2022-12-24T20:40:46.733Z,14.60
2022-12-24T20:42:48.402Z,14.59
2022-12-24T20:44:52.798Z,14.65
2022-12-24T20:46:54.411Z,14.68
2022-12-24T20:48:56.143Z,14.69
2022-12-24T20:50:58.005Z,14.69
2022-12-24T20:52:59.670Z,14.66
2022-12-24T20:55:01.250Z,14.66
2022-12-24T20:57:04.147Z,14.63
2022-12-24T20:59:05.661Z,14.62
2022-12-24T21:01:11.655Z,14.59
2022-12-24T21:03:13.395Z,14.62
2022-12-24T21:05:15.077Z,14.54
2022-12-24T21:07:16.732Z,14.46
2022-12-24T21:09:18.371Z,14.42
2022-12-24T21:11:20.587Z,14.45
2022-12-24T21:13:23.707Z,14.37
2022-12-24T21:15:27.434Z,14.40
2022-12-24T21:17:29.268Z,14.35
2022-12-24T21:19:31.003Z,14.39
2022-12-24T21:21:33.349Z,14.35
2022-12-24T21:23:34.972Z,14.32
2022-12-24T21:25:36.795Z,14.33
2022-12-24T21:27:38.964Z,14.30
2022-12-24T21:29:41.889Z,14.29
2022-12-24T21:31:43.584Z,14.28
2022-12-24T21:33:45.444Z,14.31
2022-12-24T21:35:47.039Z,14.30
2022-12-24T21:37:48.778Z,14.28
2022-12-24T21:39:50.368Z,14.25
2022-12-24T21:41:51.948Z,14.26
2022-12-24T21:43:53.601Z,14.25
2022-12-24T21:45:57.138Z,14.22
2022-12-24T21:47:58.812Z,14.21
2022-12-24T21:50:00.449Z,14.19
2022-12-24T21:52:02.074Z,14.19
2022-12-24T21:54:03.893Z,14.13
2022-12-24T21:56:08.817Z,14.13
2022-12-24T21:58:10.490Z,14.11
2022-12-24T22:00:12.874Z,14.09
2022-12-24T22:02:16.450Z,14.03
2022-12-24T22:04:18.409Z,14.02
2022-12-24T22:06:20.003Z,14.02
2022-12-24T22:08:21.637Z,13.94
2022-12-24T22:10:23.306Z,13.91
2022-12-24T22:12:25.662Z,13.89
2022-12-24T22:14:27.570Z,13.93
2022-12-24T22:16:29.512Z,13.90
2022-12-24T22:18:32.440Z,13.92
2022-12-24T22:20:34.368Z,13.90
2022-12-24T22:22:35.912Z,13.89
2022-12-24T22:24:37.489Z,13.83
2022-12-24T22:26:39.108Z,13.95
2022-12-24T22:28:40.667Z,13.92
2022-12-24T22:30:43.304Z,13.92
2022-12-24T22:32:44.942Z,13.91
2022-12-24T22:34:47.926Z,13.92
2022-12-24T22:36:49.554Z,13.90
2022-12-24T22:38:51.147Z,13.89
2022-12-24T22:40:52.784Z,13.94
2022-12-24T22:42:54.646Z,13.96
2022-12-24T22:44:56.467Z,13.93
2022-12-24T22:46:58.083Z,13.92
2022-12-24T22:48:59.646Z,13.93
2022-12-24T22:51:05.567Z,13.95
2022-12-24T22:53:07.195Z,13.97
2022-12-24T22:55:09.264Z,13.92
2022-12-24T22:57:11.268Z,13.93
2022-12-24T22:59:14.219Z,13.84
2022-12-24T23:01:15.805Z,13.91
2022-12-24T23:03:17.746Z,13.89
2022-12-24T23:05:19.680Z,13.93
2022-12-24T23:07:22.745Z,13.91
2022-12-24T23:09:24.299Z,13.93
2022-12-24T23:11:25.966Z,13.93
2022-12-24T23:13:27.573Z,13.96
2022-12-24T23:15:29.210Z,13.95
2022-12-24T23:17:30.803Z,14.00
2022-12-24T23:19:32.420Z,13.99
2022-12-24T23:21:35.593Z,14.01
2022-12-24T23:23:38.598Z,13.97
2022-12-24T23:25:40.481Z,13.95
2022-12-24T23:27:42.121Z,13.96
2022-12-24T23:29:43.687Z,13.98
2022-12-24T23:31:45.355Z,13.94
2022-12-24T23:33:47.747Z,13.97
2022-12-24T23:35:49.453Z,13.97
2022-12-24T23:37:51.007Z,13.98
2022-12-24T23:39:53.997Z,13.97
2022-12-24T23:41:55.577Z,13.96
2022-12-24T23:43:57.095Z,13.96
2022-12-24T23:45:58.995Z,13.98
2022-12-24T23:48:01.788Z,14.03
2022-12-24T23:50:04.180Z,14.02
2022-12-24T23:52:05.761Z,14.06
2022-12-24T23:54:07.367Z,14.07
2022-12-24T23:56:11.765Z,14.06
2022-12-24T23:58:14.688Z,13.99
